createdAt,value
2019-05-03T00:00:19.610Z,97760.66
2019-05-03T00:02:55.779Z,97763.41
2019-05-03T00:05:26.002Z,97761.69
2019-05-03T00:07:55.321Z,97773.44
2019-05-03T00:10:23.964Z,97778.33
2019-05-03T00:12:52.853Z,97777.13
2019-05-03T00:15:23.040Z,97776.84
2019-05-03T00:17:52.658Z,97774.19
2019-05-03T00:20:21.936Z,97773.31
2019-05-03T00:22:52.335Z,97769.20
2019-05-03T00:25:22.099Z,97777.91
2019-05-03T00:27:52.650Z,97778.03
2019-05-03T00:30:22.543Z,97767.37
2019-05-03T00:32:52.137Z,97774.31
2019-05-03T00:35:22.628Z,97780.01
2019-05-03T00:37:52.797Z,97779.27
2019-05-03T00:40:30.027Z,97781.38
2019-05-03T00:42:58.870Z,97778.48
2019-05-03T00:45:27.406Z,97782.19
2019-05-03T00:47:55.902Z,97792.28
2019-05-03T00:50:24.376Z,97791.17
2019-05-03T00:52:53.244Z,97785.82
2019-05-03T00:55:22.130Z,97785.99
2019-05-03T00:57:52.148Z,97791.79
2019-05-03T01:00:21.765Z,97782.39
2019-05-03T01:02:51.692Z,97771.82
2019-05-03T01:05:22.526Z,97783.98
2019-05-03T01:07:52.404Z,97783.53
2019-05-03T01:10:22.603Z,97790.63
2019-05-03T01:12:52.394Z,97786.38
2019-05-03T01:15:22.699Z,97785.89
2019-05-03T01:17:52.526Z,97779.14
2019-05-03T01:20:22.534Z,97781.70
2019-05-03T01:22:51.886Z,97786.33
2019-05-03T01:25:30.100Z,97785.83
2019-05-03T01:27:52.197Z,97785.28
2019-05-03T01:30:22.626Z,97785.98
2019-05-03T01:32:52.349Z,97782.22
2019-05-03T01:35:21.946Z,97783.41
2019-05-03T01:37:51.796Z,97784.01
2019-05-03T01:40:22.009Z,97776.14
2019-05-03T01:42:51.827Z,97780.58
2019-05-03T01:45:20.435Z,97784.44
2019-05-03T01:47:57.067Z,97785.83
2019-05-03T01:50:43.580Z,97779.59
2019-05-03T01:53:13.731Z,97782.70
2019-05-03T01:55:53.748Z,97781.11
2019-05-03T01:58:23.394Z,97780.52
2019-05-03T02:00:54.363Z,97786.64
2019-05-03T02:03:27.211Z,97784.75
2019-05-03T02:05:56.067Z,97786.84
2019-05-03T02:08:24.561Z,97790.67
2019-05-03T02:10:53.038Z,97792.52
2019-05-03T02:13:22.935Z,97798.20
2019-05-03T02:15:52.742Z,97790.93
2019-05-03T02:18:22.324Z,97801.48
2019-05-03T02:20:52.545Z,97792.48
2019-05-03T02:23:22.444Z,97798.23
2019-05-03T02:25:58.407Z,97800.59
2019-05-03T02:28:22.056Z,97799.21
2019-05-03T02:30:53.252Z,97803.64
2019-05-03T02:33:23.201Z,97794.66
2019-05-03T02:35:53.322Z,97789.14
2019-05-03T02:38:23.329Z,97789.46
2019-05-03T02:40:53.239Z,97790.03
2019-05-03T02:43:39.450Z,97790.16
2019-05-03T02:46:16.741Z,97792.30
2019-05-03T02:48:56.203Z,97794.00
2019-05-03T02:51:26.106Z,97795.77
2019-05-03T02:53:57.116Z,97782.56
2019-05-03T02:56:26.138Z,97780.95
2019-05-03T02:58:55.741Z,97783.98
2019-05-03T03:01:26.563Z,97779.90
2019-05-03T03:03:56.260Z,97790.09
2019-05-03T03:06:27.117Z,97786.93
2019-05-03T03:08:58.576Z,97786.82
2019-05-03T03:11:29.543Z,97789.20
2019-05-03T03:14:00.027Z,97795.55
2019-05-03T03:16:30.661Z,97795.30
2019-05-03T03:19:02.211Z,97794.59
2019-05-03T03:21:36.010Z,97791.57
2019-05-03T03:24:16.834Z,97790.47
2019-05-03T03:26:47.795Z,97798.34
2019-05-03T03:29:18.184Z,97801.80
2019-05-03T03:31:58.840Z,97805.87
2019-05-03T03:34:38.594Z,97810.08
2019-05-03T03:37:10.263Z,97820.53
2019-05-03T03:39:39.195Z,97831.80
2019-05-03T03:42:09.279Z,97842.50
2019-05-03T03:44:37.920Z,97847.67
2019-05-03T03:47:07.137Z,97851.68
2019-05-03T03:49:38.150Z,97863.79
2019-05-03T03:52:08.364Z,97872.81
2019-05-03T03:54:39.670Z,97876.33
2019-05-03T03:57:09.746Z,97875.25
2019-05-03T03:59:38.215Z,97872.58
2019-05-03T04:02:06.846Z,97878.98
2019-05-03T04:04:35.989Z,97888.84
2019-05-03T04:07:06.573Z,97883.77
2019-05-03T04:09:36.408Z,97884.47
2019-05-03T04:12:06.128Z,97896.41
2019-05-03T04:14:39.481Z,97900.31
2019-05-03T04:17:14.907Z,97904.97
2019-05-03T04:19:45.452Z,97912.71
2019-05-03T04:22:16.423Z,97914.63
2019-05-03T04:24:45.919Z,97917.78
2019-05-03T04:27:23.119Z,97906.59
2019-05-03T04:29:46.022Z,97924.41
2019-05-03T04:32:17.558Z,97931.92
2019-05-03T04:34:46.027Z,97929.91
2019-05-03T04:37:16.200Z,97926.56
2019-05-03T04:39:45.602Z,97939.98
2019-05-03T04:42:16.674Z,97939.23
2019-05-03T04:44:45.569Z,97945.53
2019-05-03T04:47:15.618Z,97954.69
2019-05-03T04:49:46.349Z,97956.50
2019-05-03T04:52:17.496Z,97961.09
2019-05-03T04:54:47.608Z,97964.08
2019-05-03T04:57:34.338Z,97961.53
2019-05-03T04:59:46.293Z,97967.58
2019-05-03T05:02:15.967Z,97970.11
2019-05-03T05:04:46.361Z,97972.31
2019-05-03T05:07:15.564Z,97974.52
2019-05-03T05:09:45.667Z,97977.72
2019-05-03T05:12:17.658Z,97976.54
2019-05-03T05:14:46.127Z,97983.93
2019-05-03T05:17:16.688Z,97983.81
2019-05-03T05:19:46.848Z,97980.80
2019-05-03T05:22:31.643Z,97980.20
2019-05-03T05:25:01.750Z,97980.98
2019-05-03T05:27:48.371Z,97983.33
2019-05-03T05:30:08.019Z,97984.22
2019-05-03T05:32:36.516Z,97987.99
2019-05-03T05:35:06.726Z,97985.28
2019-05-03T05:37:35.327Z,97987.55
2019-05-03T05:40:05.310Z,97988.52
2019-05-03T05:42:35.054Z,97988.58
2019-05-03T05:45:05.009Z,97989.39
2019-05-03T05:47:37.920Z,97993.25
2019-05-03T05:50:08.593Z,97992.55
2019-05-03T05:52:37.072Z,97994.53
2019-05-03T05:55:17.931Z,98005.81
2019-05-03T05:58:04.767Z,98006.89
2019-05-03T06:00:31.916Z,98011.25
2019-05-03T06:03:00.413Z,98008.94
2019-05-03T06:05:28.911Z,98018.95
2019-05-03T06:08:15.745Z,98012.55
2019-05-03T06:10:48.559Z,98029.09
2019-05-03T06:13:18.695Z,98025.91
2019-05-03T06:15:48.804Z,98035.05
2019-05-03T06:18:21.373Z,98039.17
2019-05-03T06:21:00.523Z,98038.08
2019-05-03T06:23:36.667Z,98046.20
2019-05-03T06:26:06.852Z,98054.91
2019-05-03T06:28:35.713Z,98060.00
2019-05-03T06:31:22.808Z,98060.73
2019-05-03T06:33:52.524Z,98065.77
2019-05-03T06:36:21.192Z,98069.35
2019-05-03T06:38:49.682Z,98070.30
2019-05-03T06:41:18.149Z,98073.20
2019-05-03T06:43:48.723Z,98071.73
2019-05-03T06:46:18.337Z,98078.11
2019-05-03T06:48:47.047Z,98082.30
2019-05-03T06:51:19.899Z,98081.25
2019-05-03T06:53:47.581Z,98083.34
2019-05-03T06:56:19.346Z,98083.87
2019-05-03T06:58:46.133Z,98086.59
2019-05-03T07:01:27.969Z,98083.49
2019-05-03T07:04:15.267Z,98089.73
2019-05-03T07:06:45.533Z,98084.39
2019-05-03T07:09:15.667Z,98082.67
2019-05-03T07:11:45.143Z,98087.84
2019-05-03T07:14:15.541Z,98085.40
2019-05-03T07:16:44.402Z,98085.55
2019-05-03T07:19:14.750Z,98089.61
2019-05-03T07:21:44.649Z,98093.67
2019-05-03T07:24:14.671Z,98090.77
2019-05-03T07:26:44.826Z,98087.67
2019-05-03T07:29:15.228Z,98092.16
2019-05-03T07:31:44.672Z,98091.94
2019-05-03T07:34:15.416Z,98102.55
2019-05-03T07:36:44.641Z,98102.67
2019-05-03T07:39:14.519Z,98109.25
2019-05-03T07:41:44.666Z,98107.07
2019-05-03T07:44:15.134Z,98107.94
2019-05-03T07:46:45.191Z,98105.33
2019-05-03T07:49:15.378Z,98109.21
2019-05-03T07:51:44.872Z,98109.36
2019-05-03T07:54:15.532Z,98108.63
2019-05-03T07:56:48.028Z,98110.54
2019-05-03T07:59:16.527Z,98114.86
2019-05-03T08:01:46.633Z,98116.19
2019-05-03T08:04:15.495Z,98115.37
2019-05-03T08:06:44.583Z,98124.23
2019-05-03T08:09:15.169Z,98125.89
2019-05-03T08:11:44.406Z,98132.69
2019-05-03T08:14:15.960Z,98139.60
2019-05-03T08:16:45.485Z,98145.67
2019-05-03T08:19:15.215Z,98141.34
2019-05-03T08:21:45.288Z,98142.72
2019-05-03T08:24:14.929Z,98147.27
2019-05-03T08:26:45.287Z,98140.03
2019-05-03T08:29:18.642Z,98141.77
2019-05-03T08:31:51.295Z,98138.02
2019-05-03T08:34:34.799Z,98144.75
2019-05-03T08:37:05.289Z,98150.06
2019-05-03T08:39:35.563Z,98149.66
2019-05-03T08:42:09.326Z,98150.00
2019-05-03T08:44:37.819Z,98150.02
2019-05-03T08:47:06.340Z,98145.81
2019-05-03T08:49:34.993Z,98147.27
2019-05-03T08:52:05.522Z,98148.83
2019-05-03T08:54:34.739Z,98156.79
2019-05-03T08:57:05.987Z,98146.17
2019-05-03T08:59:35.562Z,98145.45
2019-05-03T09:02:14.014Z,98139.56
2019-05-03T09:04:38.107Z,98136.59
2019-05-03T09:07:05.589Z,98143.36
2019-05-03T09:09:41.550Z,98136.95
2019-05-03T09:12:10.053Z,98138.81
2019-05-03T09:14:42.747Z,98134.39
2019-05-03T09:17:08.757Z,98139.15
2019-05-03T09:19:37.333Z,98134.52
2019-05-03T09:22:06.304Z,98138.50
2019-05-03T09:24:35.259Z,98142.11
2019-05-03T09:27:05.055Z,98142.45
2019-05-03T09:29:42.521Z,98147.03
2019-05-03T09:32:05.168Z,98145.88
2019-05-03T09:34:35.151Z,98143.58
2019-05-03T09:37:04.778Z,98144.40
2019-05-03T09:39:35.289Z,98141.83
2019-05-03T09:42:04.700Z,98146.25
2019-05-03T09:44:35.069Z,98138.66
2019-05-03T09:47:05.570Z,98141.99
2019-05-03T09:49:34.757Z,98144.81
2019-05-03T09:52:07.930Z,98147.25
2019-05-03T09:54:41.126Z,98141.00
2019-05-03T09:57:09.593Z,98145.34
2019-05-03T09:59:38.066Z,98145.83
2019-05-03T10:02:06.638Z,98136.35
2019-05-03T10:04:36.684Z,98132.52
2019-05-03T10:07:05.373Z,98131.17
2019-05-03T10:09:35.343Z,98130.05
2019-05-03T10:12:05.793Z,98135.95
2019-05-03T10:14:34.264Z,98135.14
2019-05-03T10:17:10.156Z,98135.02
2019-05-03T10:19:40.413Z,98133.03
2019-05-03T10:22:08.937Z,98135.09
2019-05-03T10:24:37.410Z,98140.47
2019-05-03T10:27:05.892Z,98139.40
2019-05-03T10:29:34.435Z,98143.94
2019-05-03T10:32:10.629Z,98149.97
2019-05-03T10:34:40.738Z,98147.14
2019-05-03T10:37:10.875Z,98144.72
2019-05-03T10:39:39.345Z,98152.89
2019-05-03T10:42:07.836Z,98144.48
2019-05-03T10:44:36.320Z,98141.33
2019-05-03T10:47:05.609Z,98146.15
2019-05-03T10:49:35.168Z,98138.33
2019-05-03T10:52:05.708Z,98134.09
2019-05-03T10:54:35.767Z,98128.92
2019-05-03T10:57:06.349Z,98142.28
2019-05-03T10:59:35.544Z,98128.02
2019-05-03T11:02:14.889Z,98127.98
2019-05-03T11:04:46.018Z,98129.31
2019-05-03T11:07:14.903Z,98124.23
2019-05-03T11:09:49.634Z,98119.16
2019-05-03T11:12:16.199Z,98118.44
2019-05-03T11:14:45.518Z,98124.27
2019-05-03T11:17:14.908Z,98121.50
2019-05-03T11:19:45.413Z,98123.45
2019-05-03T11:22:14.604Z,98113.61
2019-05-03T11:24:45.216Z,98120.63
2019-05-03T11:27:15.086Z,98133.39
2019-05-03T11:29:45.080Z,98128.38
2019-05-03T11:32:15.266Z,98123.17
2019-05-03T11:34:47.777Z,98129.20
2019-05-03T11:37:20.871Z,98119.44
2019-05-03T11:39:51.642Z,98128.88
2019-05-03T11:42:20.142Z,98123.45
2019-05-03T11:44:48.611Z,98113.27
2019-05-03T11:47:17.080Z,98136.83
2019-05-03T11:49:45.657Z,98120.29
2019-05-03T11:52:15.920Z,98116.41
2019-05-03T11:54:45.331Z,98119.98
2019-05-03T11:57:15.806Z,98118.83
2019-05-03T11:59:45.303Z,98124.04
2019-05-03T12:02:17.936Z,98121.66
2019-05-03T12:04:46.436Z,98120.78
2019-05-03T12:07:18.501Z,98133.41
2019-05-03T12:09:46.782Z,98134.60
2019-05-03T12:12:16.899Z,98126.85
2019-05-03T12:14:45.410Z,98124.44
2019-05-03T12:17:20.928Z,98134.75
2019-05-03T12:19:47.484Z,98145.46
2019-05-03T12:22:16.665Z,98151.45
2019-05-03T12:24:46.530Z,98149.43
2019-05-03T12:27:15.261Z,98145.25
2019-05-03T12:29:44.741Z,98155.00
2019-05-03T12:32:14.742Z,98150.78
2019-05-03T12:34:43.244Z,98146.94
2019-05-03T12:37:11.706Z,98146.38
2019-05-03T12:39:40.251Z,98146.64
2019-05-03T12:42:09.455Z,98144.89
2019-05-03T12:44:38.426Z,98145.88
2019-05-03T12:47:06.910Z,98135.90
2019-05-03T12:49:36.007Z,98134.03
2019-05-03T12:52:05.339Z,98134.60
2019-05-03T12:54:35.524Z,98131.66
2019-05-03T12:57:05.049Z,98132.25
2019-05-03T12:59:38.039Z,98130.37
2019-05-03T13:02:15.526Z,98126.21
2019-05-03T13:04:45.843Z,98128.65
2019-05-03T13:07:15.949Z,98120.25
2019-05-03T13:09:45.369Z,98115.15
2019-05-03T13:12:15.631Z,98116.14
2019-05-03T13:14:45.371Z,98116.23
2019-05-03T13:17:15.228Z,98118.28
2019-05-03T13:19:45.181Z,98110.23
2019-05-03T13:22:13.934Z,98102.80
2019-05-03T13:24:42.434Z,98110.98
2019-05-03T13:27:10.898Z,98112.17
2019-05-03T13:29:40.336Z,98112.79
2019-05-03T13:32:08.823Z,98115.77
2019-05-03T13:34:37.385Z,98103.75
2019-05-03T13:37:05.856Z,98111.53
2019-05-03T13:39:35.955Z,98108.51
2019-05-03T13:42:05.677Z,98106.63
2019-05-03T13:44:35.538Z,98111.66
2019-05-03T13:47:04.589Z,98096.63
2019-05-03T13:49:35.232Z,98100.16
2019-05-03T13:52:05.089Z,98098.94
2019-05-03T13:54:35.056Z,98090.20
2019-05-03T13:57:04.917Z,98093.02
2019-05-03T13:59:33.711Z,98089.83
2019-05-03T14:02:12.547Z,98087.93
2019-05-03T14:04:35.751Z,98092.45
2019-05-03T14:07:04.507Z,98097.45
2019-05-03T14:09:34.763Z,98087.86
2019-05-03T14:12:05.587Z,98094.87
2019-05-03T14:14:51.258Z,98088.05
2019-05-03T14:17:19.718Z,98089.61
2019-05-03T14:19:49.053Z,98094.16
2019-05-03T14:22:18.014Z,98083.88
2019-05-03T14:24:46.489Z,98082.54
2019-05-03T14:27:17.074Z,98093.91
2019-05-03T14:29:45.516Z,98071.73
2019-05-03T14:32:25.379Z,98087.37
2019-05-03T14:34:45.401Z,98084.56
2019-05-03T14:37:13.995Z,98073.70
2019-05-03T14:39:42.465Z,98091.14
2019-05-03T14:42:10.965Z,98084.80
2019-05-03T14:44:39.438Z,98073.05
2019-05-03T14:47:07.937Z,98084.58
2019-05-03T14:49:36.404Z,98081.17
2019-05-03T14:52:05.553Z,98086.27
2019-05-03T14:54:35.872Z,98094.67
2019-05-03T14:57:21.001Z,98077.38
2019-05-03T15:00:06.348Z,98087.23
2019-05-03T15:02:47.630Z,98084.16
2019-05-03T15:05:12.309Z,98090.65
2019-05-03T15:07:40.795Z,98091.15
2019-05-03T15:10:09.407Z,98079.86
2019-05-03T15:12:37.906Z,98085.49
2019-05-03T15:15:07.713Z,98091.50
2019-05-03T15:17:36.288Z,98083.14
2019-05-03T15:20:07.368Z,98088.48
2019-05-03T15:22:35.953Z,98080.37
2019-05-03T15:25:06.169Z,98084.00
2019-05-03T15:27:35.379Z,98092.41
2019-05-03T15:30:06.174Z,98088.34
2019-05-03T15:32:35.359Z,98087.36
2019-05-03T15:35:06.213Z,98086.97
2019-05-03T15:37:35.773Z,98086.61
2019-05-03T15:40:07.566Z,98081.88
2019-05-03T15:42:37.533Z,98082.77
2019-05-03T15:45:18.253Z,98079.19
2019-05-03T15:47:57.342Z,98083.67
2019-05-03T15:50:25.888Z,98082.71
2019-05-03T15:52:55.049Z,98088.77
2019-05-03T15:55:24.611Z,98089.48
2019-05-03T15:57:55.183Z,98077.85
2019-05-03T16:00:24.454Z,98098.46
2019-05-03T16:02:54.726Z,98092.72
2019-05-03T16:05:25.112Z,98091.77
2019-05-03T16:07:55.268Z,98087.02
2019-05-03T16:10:24.890Z,98091.62
2019-05-03T16:12:54.557Z,98087.12
2019-05-03T16:15:24.569Z,98083.50
2019-05-03T16:17:54.810Z,98084.48
2019-05-03T16:20:25.187Z,98095.98
2019-05-03T16:22:54.410Z,98090.07
2019-05-03T16:25:25.159Z,98102.27
2019-05-03T16:27:55.491Z,98096.69
2019-05-03T16:30:40.334Z,98088.11
2019-05-03T16:33:08.834Z,98089.20
2019-05-03T16:35:37.842Z,98088.05
2019-05-03T16:38:06.638Z,98078.69
2019-05-03T16:40:35.159Z,98086.52
2019-05-03T16:43:03.656Z,98085.67
2019-05-03T16:45:32.158Z,98090.29
2019-05-03T16:48:00.844Z,98084.39
2019-05-03T16:50:29.304Z,98081.83
2019-05-03T16:52:57.804Z,98092.22
2019-05-03T16:55:26.288Z,98090.81
2019-05-03T16:57:54.959Z,98084.98
2019-05-03T17:00:25.067Z,98089.31
2019-05-03T17:02:55.097Z,98086.47
2019-05-03T17:05:25.338Z,98088.92
2019-05-03T17:07:55.484Z,98082.45
2019-05-03T17:10:28.402Z,98086.72
2019-05-03T17:12:57.089Z,98082.46
2019-05-03T17:15:25.654Z,98082.61
2019-05-03T17:17:54.145Z,98082.10
2019-05-03T17:20:22.609Z,98091.05
2019-05-03T17:22:51.093Z,98089.92
2019-05-03T17:25:19.660Z,98088.27
2019-05-03T17:27:48.130Z,98089.80
2019-05-03T17:30:17.022Z,98079.07
2019-05-03T17:32:45.894Z,98085.88
2019-05-03T17:35:14.573Z,98081.61
2019-05-03T17:37:45.080Z,98082.36
2019-05-03T17:40:23.759Z,98088.92
2019-05-03T17:42:59.612Z,98087.69
2019-05-03T17:45:29.739Z,98091.42
2019-05-03T17:47:58.213Z,98084.38
2019-05-03T17:50:26.814Z,98083.67
2019-05-03T17:53:08.789Z,98084.44
2019-05-03T17:55:44.654Z,98093.41
2019-05-03T17:58:17.527Z,98091.85
2019-05-03T18:00:50.371Z,98088.66
2019-05-03T18:03:19.408Z,98081.64
2019-05-03T18:05:49.548Z,98078.45
2019-05-03T18:08:31.713Z,98076.27
2019-05-03T18:11:04.776Z,98079.77
2019-05-03T18:13:35.257Z,98086.64
2019-05-03T18:16:04.729Z,98093.39
2019-05-03T18:18:35.234Z,98090.56
2019-05-03T18:21:04.812Z,98090.64
2019-05-03T18:23:35.021Z,98088.59
2019-05-03T18:26:05.314Z,98089.88
2019-05-03T18:28:35.570Z,98095.50
2019-05-03T18:31:05.360Z,98098.81
2019-05-03T18:33:34.408Z,98099.81
2019-05-03T18:36:02.898Z,98102.81
2019-05-03T18:38:33.001Z,98107.81
2019-05-03T18:41:01.963Z,98117.67
2019-05-03T18:43:37.790Z,98118.94
2019-05-03T18:46:24.367Z,98120.94
2019-05-03T18:48:52.910Z,98123.50
2019-05-03T18:51:25.096Z,98122.92
2019-05-03T18:53:54.436Z,98122.64
2019-05-03T18:56:25.039Z,98131.23
2019-05-03T18:58:54.376Z,98124.91
2019-05-03T19:01:25.163Z,98123.60
2019-05-03T19:03:55.515Z,98130.09
2019-05-03T19:06:24.039Z,98126.50
2019-05-03T19:08:54.495Z,98133.22
2019-05-03T19:11:27.493Z,98135.11
2019-05-03T19:14:00.699Z,98134.99
2019-05-03T19:16:36.340Z,98137.03
2019-05-03T19:19:04.970Z,98136.83
2019-05-03T19:21:35.004Z,98133.64
2019-05-03T19:24:04.841Z,98134.59
2019-05-03T19:26:35.261Z,98130.80
2019-05-03T19:29:04.433Z,98131.53
2019-05-03T19:31:33.125Z,98122.60
2019-05-03T19:34:01.588Z,98126.02
2019-05-03T19:36:30.076Z,98130.83
2019-05-03T19:38:58.542Z,98128.70
2019-05-03T19:41:27.033Z,98130.23
2019-05-03T19:43:55.504Z,98120.27
2019-05-03T19:46:24.778Z,98122.47
2019-05-03T19:48:54.672Z,98121.73
2019-05-03T19:51:23.330Z,98115.02
2019-05-03T19:53:55.111Z,98114.67
2019-05-03T19:56:25.570Z,98113.66
2019-05-03T19:58:55.769Z,98114.39
2019-05-03T20:01:28.884Z,98120.11
2019-05-03T20:04:01.684Z,98115.08
2019-05-03T20:06:37.483Z,98115.33
2019-05-03T20:09:21.549Z,98116.41
2019-05-03T20:11:50.037Z,98113.00
2019-05-03T20:14:18.496Z,98108.80
2019-05-03T20:16:46.981Z,98109.20
2019-05-03T20:19:20.876Z,98112.91
2019-05-03T20:21:45.759Z,98106.58
2019-05-03T20:24:14.944Z,98113.18
2019-05-03T20:26:45.065Z,98106.89
2019-05-03T20:29:14.798Z,98113.35
2019-05-03T20:31:44.719Z,98106.26
2019-05-03T20:34:13.223Z,98107.91
2019-05-03T20:36:41.719Z,98106.92
2019-05-03T20:39:10.184Z,98107.12
2019-05-03T20:41:38.646Z,98104.75
2019-05-03T20:44:25.236Z,98102.13
2019-05-03T20:46:58.025Z,98105.13
2019-05-03T20:49:26.496Z,98103.42
2019-05-03T20:51:55.087Z,98108.55
2019-05-03T20:54:23.574Z,98114.95
2019-05-03T20:56:52.047Z,98116.19
2019-05-03T20:59:20.556Z,98115.78
2019-05-03T21:01:49.010Z,98110.17
2019-05-03T21:04:17.569Z,98116.97
2019-05-03T21:06:46.044Z,98110.48
2019-05-03T21:09:14.919Z,98109.78
2019-05-03T21:11:44.852Z,98110.05
2019-05-03T21:14:15.619Z,98111.53
2019-05-03T21:16:45.454Z,98114.02
2019-05-03T21:19:18.799Z,98113.27
2019-05-03T21:21:48.909Z,98108.48
2019-05-03T21:24:26.202Z,98113.41
2019-05-03T21:26:54.855Z,98113.20
2019-05-03T21:29:23.519Z,98116.56
2019-05-03T21:31:52.374Z,98109.88
2019-05-03T21:34:20.862Z,98112.72
2019-05-03T21:36:49.328Z,98109.84
2019-05-03T21:39:17.962Z,98105.57
2019-05-03T21:41:46.429Z,98109.77
2019-05-03T21:44:31.005Z,98109.69
2019-05-03T21:47:01.248Z,98112.70
2019-05-03T21:49:46.175Z,98115.64
2019-05-03T21:52:14.784Z,98105.70
2019-05-03T21:54:44.966Z,98107.37
2019-05-03T21:57:14.290Z,98110.13
2019-05-03T21:59:44.828Z,98105.00
2019-05-03T22:02:15.436Z,98104.52
2019-05-03T22:04:44.465Z,98108.22
2019-05-03T22:07:13.090Z,98102.11
2019-05-03T22:09:41.572Z,98098.97
2019-05-03T22:12:10.052Z,98102.88
2019-05-03T22:14:42.941Z,98093.27
2019-05-03T22:17:29.559Z,98091.64
2019-05-03T22:19:59.699Z,98099.14
2019-05-03T22:22:36.537Z,98095.84
2019-05-03T22:25:08.480Z,98087.20
2019-05-03T22:27:38.583Z,98086.30
2019-05-03T22:30:07.820Z,98091.64
2019-05-03T22:32:36.283Z,98089.88
2019-05-03T22:35:09.374Z,98095.23
2019-05-03T22:37:37.848Z,98094.91
2019-05-03T22:40:06.679Z,98090.33
2019-05-03T22:42:35.146Z,98088.83
2019-05-03T22:45:04.752Z,98089.45
2019-05-03T22:47:33.179Z,98087.94
2019-05-03T22:50:01.662Z,98078.31
2019-05-03T22:52:30.127Z,98074.98
2019-05-03T22:54:58.637Z,98066.08
2019-05-03T22:57:27.125Z,98067.51
2019-05-03T22:59:55.625Z,98062.12
2019-05-03T23:02:24.955Z,98053.66
2019-05-03T23:04:55.389Z,98057.48
2019-05-03T23:07:24.992Z,98051.91
2019-05-03T23:09:53.642Z,98057.61
2019-05-03T23:12:22.106Z,98056.23
2019-05-03T23:14:50.576Z,98053.02
2019-05-03T23:17:19.064Z,98057.17
2019-05-03T23:19:49.167Z,98052.13
2019-05-03T23:22:25.432Z,98049.16
2019-05-03T23:24:54.834Z,98046.72
2019-05-03T23:27:24.953Z,98047.56
2019-05-03T23:29:54.532Z,98033.84
2019-05-03T23:32:24.456Z,98034.30
2019-05-03T23:34:54.415Z,98030.75
2019-05-03T23:37:23.031Z,98036.20
2019-05-03T23:39:51.505Z,98036.67
2019-05-03T23:42:20.110Z,98034.30
2019-05-03T23:44:48.582Z,98029.38
2019-05-03T23:47:18.708Z,98033.95
2019-05-03T23:49:47.175Z,98034.70
2019-05-03T23:52:19.963Z,98030.98
2019-05-03T23:54:48.426Z,98032.73
2019-05-03T23:57:16.930Z,98030.84
2019-05-03T23:59:45.394Z,98027.26
